Centennial, WY (82055)

7:52 PM MST on December 27, 2014 (GMT -0700)
Aspen Country | Change Station
CLOSE
Current Station
Personal Weather Station
Location: Centennial, WY
Elevation: 8050 ft
Nearby Weather Stations

Elev 8050 ft 41.29 °N, 106.15 °W | Updated 2 minutes ago

Partly Cloudy
Partly Cloudy
10.3 °F
Feels Like -11 °F
N
26.0
Wind Variable Wind from WSW
Gusts 26.0 mph

Today
High -- | Low -- °F
--% Chance of Precip.
Yesterday
High -- | Low -- °F
Precip. -- in
7:29 AM 4:42 PM
Waxing Crescent, 43% visible
Pressure 30.34 in
Visibility 10.0 miles
Clouds Clear
Windchill -11 °F
Dew Point -2 °F
Humidity 58%
Rainfall 0.00 in
Snow Depth Not available.
UV 0 out of 12
Pollen .10 out of 12
Air Quality Not available.
Flu Activity Not available.
METAR KLAR 280153Z AUTO 23021KT 10SM CLR M11/M18 A2998 RMK AO2 PK WND 23028/0151 SLP274 T11111183

More Conditions Fewer Conditions

Pressure 30.34 in
Visibility 10.0 miles
Clouds Clear
Windchill -11 °F
Dew Point -2 °F
Humidity 58%
Rainfall 0.00 in
Snow Depth Not available.
UV 0 out of 12
Pollen .10 out of 12
Air Quality Not available.
Flu Activity Not available.
METAR KLAR 280153Z AUTO 23021KT 10SM CLR M11/M18 A2998 RMK AO2 PK WND 23028/0151 SLP274 T11111183

More Conditions Fewer Conditions

Nowcast | as of 6:49 PM MST on December 27, 2014

Westerly winds of 30 to 40 miles an hour with gusts of 45 to 55 miles an hour will cause areas of blowing and drifting snow that could reduce visibilities to near zero at times. Especially along Interstate 80 between Rawlins and Cheyenne. In addition to the visibility issues...the blowing and drifting snow will create icy patches on the Road surfaces. Those traveling should remain alert to the possibility of patchy black ice. A High Wind Warning remains in effect with the strongest winds expected late this evening into the early morning hours of Sunday. West or southwest winds of 35 to 45 milesan hour with gusts to 65 miles an hour will be possible.

×

10-Day Weather Forecast

Almanac

Astronomy

Dec. 27, 2014 Rise Set
Actual Time
Civil Twilight
Nautical Twilight
Astronomical Twilight
Moon
Length of Visible Light
Length of Day
Tomorrow will be .
, % of the Moon is Illuminated

Today's Extremes

State Highs State Lows

Community

WunderPhotos

Upload Photos

1,781,144 photos uploaded!

WunderBlogs® & News

Nearby

Air Quality

  Air Quality AQ Index Pollutant
Not available.

Snow Depth

Station Depth Elevation

Earthquake Activity

City Distance Mag. Time & Date
Minimum magnitude displayed is 2.5.

Coastal Water Temperatures

Place Temperature

Nearby Weather Stations